Time;durP1;ratioP1;P1;durP2;ratioP2;P2;SDS_P1;SDS_P2;PMS_P1;PMS_P2;Temp;Humidity;BMP_temperature;BMP_pressure;BME280_temperature;BME280_humidity;BME280_pressure;Samples;Min_cycle;Max_cycle;Signal;HPM_P1;HPM_P2
2022/04/16 00:01:12;;;;;;;45.80;27.98;;;;;;;;;;5131568;27;20084;-74
2022/04/16 00:03:38;;;;;;;47.63;29.65;;;;;;;;;;5121972;27;20019;-73
2022/04/16 00:06:03;;;;;;;46.58;30.40;;;;;;;;;;5117945;27;20033;-73
2022/04/16 00:08:29;;;;;;;49.67;30.65;;;;;;;;;;5114168;27;20480;-74
2022/04/16 00:10:54;;;;;;;46.97;31.42;;;;;;;;;;5112892;27;20072;-74
2022/04/16 00:13:20;;;;;;;48.20;30.65;;;;;;;;;;5119887;27;20008;-74
2022/04/16 00:15:46;;;;;;;46.00;28.60;;;;;;;;;;5122849;27;20043;-74
2022/04/16 00:18:12;;;;;;;51.83;31.33;;;;;;;;;;5132139;27;20023;-74
2022/04/16 00:20:37;;;;;;;45.83;28.50;;;;;;;;;;5125995;27;20064;-74
2022/04/16 00:23:02;;;;;;;43.47;27.27;;;;;;;;;;5120219;27;20401;-74
2022/04/16 00:25:32;;;;;;;51.28;27.08;;;;;;;;;;5126104;27;20638;-73
2022/04/16 00:27:58;;;;;;;51.83;27.65;;;;;;;;;;5131918;27;20083;-74
2022/04/16 00:30:23;;;;;;;53.47;28.15;;;;;;;;;;5132694;27;20027;-73
2022/04/16 00:32:51;;;;;;;45.92;27.67;;;;;;;;;;5131962;27;20027;-73
2022/04/16 00:35:18;;;;;;;45.17;27.92;;;;;;;;;;5131959;27;20059;-74
2022/04/16 00:37:44;;;;;;;55.38;29.80;;;;;;;;;;5130506;27;20424;-73
2022/04/16 00:40:09;;;;;;;64.95;32.33;;;;;;;;;;5133790;27;20110;-75
2022/04/16 00:42:44;;;;;;;53.33;31.02;;;;;;;;;;5121640;27;20383;-79
2022/04/16 00:45:09;;;;;;;46.60;28.70;;;;;;;;;;5122072;27;20016;-73
2022/04/16 00:47:36;;;;;;;39.05;24.52;;;;;;;;;;5128930;27;20035;-74
2022/04/16 00:50:01;;;;;;;44.25;25.65;;;;;;;;;;5130352;27;20015;-73
2022/04/16 00:52:27;;;;;;;36.95;23.98;;;;;;;;;;5131555;27;20023;-73
2022/04/16 00:54:54;;;;;;;28.10;19.10;;;;;;;;;;5130174;27;20046;-74
2022/04/16 00:57:19;;;;;;;27.35;18.40;;;;;;;;;;5121123;27;20027;-73
2022/04/16 00:59:45;;;;;;;30.30;19.63;;;;;;;;;;5122194;27;20022;-74
2022/04/16 01:02:10;;;;;;;32.20;20.00;;;;;;;;;;5109956;28;20072;-79
2022/04/16 01:04:36;;;;;;;31.80;20.70;;;;;;;;;;5115950;27;20027;-74
2022/04/16 01:07:01;;;;;;;40.20;22.38;;;;;;;;;;5119977;27;20016;-73
2022/04/16 01:09:26;;;;;;;38.53;23.43;;;;;;;;;;5121245;27;20015;-75
2022/04/16 01:11:51;;;;;;;41.80;22.98;;;;;;;;;;5131723;27;20735;-75
2022/04/16 01:14:19;;;;;;;42.55;23.40;;;;;;;;;;5131525;27;20098;-74
2022/04/16 01:16:44;;;;;;;43.03;24.02;;;;;;;;;;5130344;27;20047;-73
2022/04/16 01:19:12;;;;;;;46.47;23.65;;;;;;;;;;5132178;27;20068;-74
2022/04/16 01:21:39;;;;;;;36.92;23.70;;;;;;;;;;5131567;27;20044;-74
2022/04/16 01:24:05;;;;;;;38.42;23.70;;;;;;;;;;5131971;27;20034;-74
2022/04/16 01:26:30;;;;;;;35.17;22.50;;;;;;;;;;5131555;27;20463;-74
2022/04/16 01:28:55;;;;;;;39.05;23.40;;;;;;;;;;5130929;27;20039;-74
2022/04/16 01:31:21;;;;;;;41.55;23.83;;;;;;;;;;5129349;27;20023;-74
2022/04/16 01:33:46;;;;;;;40.97;22.53;;;;;;;;;;5121242;27;20019;-75
2022/04/16 01:36:12;;;;;;;41.22;24.60;;;;;;;;;;5121511;27;20255;-74
2022/04/16 01:38:37;;;;;;;41.60;25.40;;;;;;;;;;5131944;27;20015;-74
2022/04/16 01:41:03;;;;;;;37.75;23.70;;;;;;;;;;5134695;27;20384;-75
2022/04/16 01:43:29;;;;;;;41.67;24.38;;;;;;;;;;5136442;28;20417;-73
2022/04/16 01:45:55;;;;;;;34.75;22.15;;;;;;;;;;5131567;27;20052;-73
2022/04/16 01:48:21;;;;;;;34.05;21.90;;;;;;;;;;5131438;28;20544;-74
2022/04/16 01:50:46;;;;;;;42.47;24.73;;;;;;;;;;5131056;27;20023;-73
2022/04/16 01:53:11;;;;;;;37.08;22.17;;;;;;;;;;5129504;28;20019;-74
2022/04/16 01:55:37;;;;;;;37.42;21.45;;;;;;;;;;5130286;28;20015;-74
2022/04/16 01:58:05;;;;;;;31.98;19.58;;;;;;;;;;5130743;28;20045;-73
2022/04/16 02:00:31;;;;;;;30.80;19.38;;;;;;;;;;5130074;27;20837;-74
2022/04/16 02:02:57;;;;;;;31.77;20.25;;;;;;;;;;5119817;28;20036;-74
2022/04/16 02:05:22;;;;;;;27.17;18.65;;;;;;;;;;5118707;27;20007;-74
2022/04/16 02:07:49;;;;;;;29.48;20.00;;;;;;;;;;5127551;27;20096;-74
2022/04/16 02:10:16;;;;;;;29.70;19.95;;;;;;;;;;5123986;27;20467;-73
2022/04/16 02:12:42;;;;;;;31.98;20.23;;;;;;;;;;5122104;27;20027;-74
2022/04/16 02:15:08;;;;;;;26.92;18.88;;;;;;;;;;5114149;28;20050;-74
2022/04/16 02:17:34;;;;;;;29.85;20.35;;;;;;;;;;5114064;28;20032;-74
2022/04/16 02:19:59;;;;;;;28.67;19.92;;;;;;;;;;5114496;28;20024;-74
2022/04/16 02:22:25;;;;;;;35.15;21.20;;;;;;;;;;5114195;28;20024;-74
2022/04/16 02:24:50;;;;;;;31.20;20.55;;;;;;;;;;5114585;28;20027;-75
2022/04/16 02:27:16;;;;;;;31.73;20.70;;;;;;;;;;5121830;27;20076;-75
2022/04/16 02:29:41;;;;;;;30.10;20.13;;;;;;;;;;5123529;27;20062;-74
2022/04/16 02:32:07;;;;;;;30.80;20.65;;;;;;;;;;5119855;27;20271;-73
2022/04/16 02:34:32;;;;;;;34.00;21.83;;;;;;;;;;5114594;28;20016;-74
2022/04/16 02:36:58;;;;;;;32.60;20.52;;;;;;;;;;5114353;27;20031;-73
2022/04/16 02:39:23;;;;;;;31.67;21.27;;;;;;;;;;5114920;28;20024;-74
2022/04/16 02:41:49;;;;;;;32.60;21.35;;;;;;;;;;5114549;28;20027;-73
2022/04/16 02:47:08;;;;;;;31.67;21.55;;;;;;;;;;5123714;27;20133;-73
2022/04/16 02:49:34;;;;;;;37.20;21.20;;;;;;;;;;5120398;27;21070;-76
2022/04/16 02:51:59;;;;;;;32.90;21.20;;;;;;;;;;5115143;28;21100;-74
2022/04/16 02:54:25;;;;;;;29.80;20.67;;;;;;;;;;5113459;27;20020;-74
2022/04/16 02:56:50;;;;;;;30.90;20.75;;;;;;;;;;5113910;28;20015;-74
2022/04/16 02:59:16;;;;;;;33.33;21.67;;;;;;;;;;5113130;28;20031;-73
2022/04/16 03:01:41;;;;;;;29.20;20.67;;;;;;;;;;5114098;28;20018;-74
2022/04/16 03:04:06;;;;;;;29.80;21.67;;;;;;;;;;5115920;27;20274;-73
2022/04/16 03:06:31;;;;;;;33.30;20.97;;;;;;;;;;5115273;27;20272;-73
2022/04/16 03:08:56;;;;;;;34.88;20.98;;;;;;;;;;5113496;28;20296;-78
2022/04/16 03:11:22;;;;;;;31.47;21.00;;;;;;;;;;5116768;27;20039;-73
2022/04/16 03:13:47;;;;;;;36.05;21.77;;;;;;;;;;5119983;27;20385;-73
2022/04/16 03:18:56;;;;;;;31.25;20.35;;;;;;;;;;5132808;27;20665;-73
2022/04/16 03:21:22;;;;;;;30.80;20.95;;;;;;;;;;5120514;27;20449;-73
2022/04/16 03:23:47;;;;;;;30.93;20.33;;;;;;;;;;5123275;27;20068;-73
2022/04/16 03:26:13;;;;;;;27.03;19.40;;;;;;;;;;5132194;27;20260;-74
2022/04/16 03:28:38;;;;;;;30.03;20.57;;;;;;;;;;5133026;27;20290;-74
2022/04/16 03:31:04;;;;;;;31.80;20.60;;;;;;;;;;5133669;27;20255;-73
2022/04/16 03:33:31;;;;;;;30.35;22.35;;;;;;;;;;5116422;27;20078;-73
2022/04/16 03:35:56;;;;;;;32.00;20.35;;;;;;;;;;5112675;28;20047;-74
2022/04/16 03:38:22;;;;;;;33.80;20.60;;;;;;;;;;5114249;28;20071;-74
2022/04/16 03:40:50;;;;;;;30.00;20.73;;;;;;;;;;5116543;28;20477;-74
2022/04/16 03:43:17;;;;;;;36.63;20.75;;;;;;;;;;5114642;28;20033;-74
2022/04/16 03:45:43;;;;;;;32.13;21.75;;;;;;;;;;5113013;28;20472;-74
2022/04/16 03:48:08;;;;;;;25.08;16.95;;;;;;;;;;5112893;28;20040;-73
2022/04/16 03:50:34;;;;;;;23.48;16.80;;;;;;;;;;5113103;28;20066;-74
2022/04/16 03:53:00;;;;;;;31.23;20.20;;;;;;;;;;5123124;27;20039;-73
2022/04/16 04:00:55;;;;;;;28.73;19.48;;;;;;;;;;5112650;28;20029;-73
2022/04/16 04:03:21;;;;;;;26.90;19.23;;;;;;;;;;5111607;28;20420;-73
2022/04/16 04:05:48;;;;;;;28.55;18.70;;;;;;;;;;5112618;27;20030;-73
2022/04/16 04:08:13;;;;;;;25.90;18.55;;;;;;;;;;5113508;28;20081;-74
2022/04/16 04:10:38;;;;;;;26.05;18.63;;;;;;;;;;5132556;27;20418;-73
2022/04/16 04:13:04;;;;;;;28.55;18.42;;;;;;;;;;5132295;27;20027;-74
2022/04/16 04:15:29;;;;;;;23.52;17.23;;;;;;;;;;5132499;27;20064;-73
2022/04/16 04:18:01;;;;;;;20.88;16.00;;;;;;;;;;5132839;27;20042;-74
2022/04/16 04:20:29;;;;;;;23.27;16.75;;;;;;;;;;5134086;27;20014;-74
2022/04/16 04:22:55;;;;;;;23.73;16.08;;;;;;;;;;5132876;27;20491;-73
2022/04/16 04:25:20;;;;;;;20.92;14.13;;;;;;;;;;5132629;27;20023;-73
2022/04/16 04:27:46;;;;;;;19.35;13.10;;;;;;;;;;5128889;27;20032;-74
2022/04/16 04:30:11;;;;;;;21.02;12.98;;;;;;;;;;5120416;27;20030;-73
2022/04/16 04:32:36;;;;;;;15.85;11.25;;;;;;;;;;5118948;27;20064;-73
2022/04/16 04:35:02;;;;;;;18.45;12.77;;;;;;;;;;5111498;27;20019;-73
2022/04/16 04:37:28;;;;;;;18.77;12.25;;;;;;;;;;5111746;28;20022;-73
2022/04/16 04:39:53;;;;;;;15.98;12.77;;;;;;;;;;5112401;28;20023;-73
2022/04/16 04:42:25;;;;;;;17.50;12.23;;;;;;;;;;5113428;27;20069;-73
2022/04/16 04:44:50;;;;;;;15.65;12.85;;;;;;;;;;5120273;27;20038;-77
2022/04/16 04:47:16;;;;;;;16.50;11.63;;;;;;;;;;5119922;27;20015;-74
2022/04/16 04:49:41;;;;;;;14.77;10.57;;;;;;;;;;5111801;28;20529;-73
2022/04/16 04:52:06;;;;;;;15.17;11.03;;;;;;;;;;5111406;28;20016;-73
2022/04/16 04:54:32;;;;;;;15.70;11.23;;;;;;;;;;5110807;28;20271;-73
2022/04/16 04:56:57;;;;;;;17.60;11.07;;;;;;;;;;5114056;27;20072;-75
2022/04/16 04:59:22;;;;;;;12.27;8.55;;;;;;;;;;5121031;27;20031;-73
2022/04/16 05:01:47;;;;;;;12.25;8.82;;;;;;;;;;5119411;27;20022;-73
2022/04/16 05:04:13;;;;;;;11.07;8.07;;;;;;;;;;5110494;28;20020;-73
2022/04/16 05:06:38;;;;;;;10.23;7.27;;;;;;;;;;5110974;28;20351;-73
2022/04/16 05:09:03;;;;;;;11.70;7.20;;;;;;;;;;5118724;27;20326;-74
2022/04/16 05:11:29;;;;;;;10.07;7.45;;;;;;;;;;5119431;27;20019;-73
2022/04/16 05:13:54;;;;;;;11.35;7.43;;;;;;;;;;5126154;27;20060;-73
2022/04/16 05:16:19;;;;;;;11.37;8.13;;;;;;;;;;5121079;27;20383;-73
2022/04/16 05:18:44;;;;;;;11.80;7.30;;;;;;;;;;5119631;27;20293;-73
2022/04/16 05:21:09;;;;;;;10.77;7.57;;;;;;;;;;5110281;28;20383;-73
2022/04/16 05:23:39;;;;;;;11.00;7.07;;;;;;;;;;5110954;28;21070;-73
2022/04/16 05:26:04;;;;;;;9.15;6.93;;;;;;;;;;5111013;28;20107;-74
2022/04/16 05:28:29;;;;;;;12.23;7.53;;;;;;;;;;5110891;28;20446;-75
2022/04/16 05:30:58;;;;;;;9.60;6.57;;;;;;;;;;5115725;28;20284;-74
2022/04/16 05:36:07;;;;;;;10.60;7.30;;;;;;;;;;5115614;27;20023;-74
2022/04/16 05:38:32;;;;;;;11.18;7.20;;;;;;;;;;5110636;28;20019;-73
2022/04/16 05:40:58;;;;;;;12.48;8.77;;;;;;;;;;5112458;28;20028;-80
2022/04/16 05:43:23;;;;;;;12.40;7.60;;;;;;;;;;5117211;28;20420;-83
2022/04/16 05:45:48;;;;;;;9.88;7.10;;;;;;;;;;5136576;28;20031;-77
2022/04/16 05:48:14;;;;;;;10.00;6.97;;;;;;;;;;5122051;28;20372;-86
2022/04/16 05:50:39;;;;;;;13.32;8.05;;;;;;;;;;5112966;28;20020;-76
2022/04/16 05:53:09;;;;;;;11.98;7.97;;;;;;;;;;5110825;28;20031;-80
2022/04/16 05:55:34;;;;;;;9.52;6.40;;;;;;;;;;5111927;28;20024;-82
2022/04/16 05:58:00;;;;;;;9.77;7.25;;;;;;;;;;5112937;28;20023;-83
2022/04/16 06:00:25;;;;;;;10.50;6.82;;;;;;;;;;5116265;28;20472;-82
2022/04/16 06:02:51;;;;;;;11.45;7.50;;;;;;;;;;5120716;28;20027;-79
2022/04/16 06:05:16;;;;;;;9.40;6.85;;;;;;;;;;5113846;28;20047;-77
2022/04/16 06:07:41;;;;;;;11.52;7.28;;;;;;;;;;5117004;28;20032;-79
2022/04/16 06:10:07;;;;;;;18.02;7.07;;;;;;;;;;5112831;28;20022;-80
2022/04/16 06:12:32;;;;;;;10.15;6.50;;;;;;;;;;5110109;28;20027;-77
2022/04/16 06:14:59;;;;;;;10.18;7.00;;;;;;;;;;5109613;28;20389;-77
2022/04/16 06:17:24;;;;;;;8.88;6.07;;;;;;;;;;5110562;28;20055;-75
2022/04/16 06:19:49;;;;;;;10.17;6.47;;;;;;;;;;5113546;28;20450;-75
2022/04/16 06:22:15;;;;;;;9.90;6.95;;;;;;;;;;5119612;28;20670;-76
2022/04/16 06:24:41;;;;;;;10.15;6.90;;;;;;;;;;5116383;28;20024;-76
2022/04/16 06:27:06;;;;;;;12.27;6.95;;;;;;;;;;5110561;28;20026;-75
2022/04/16 06:29:31;;;;;;;10.00;6.63;;;;;;;;;;5112630;28;20111;-75
2022/04/16 06:31:57;;;;;;;9.60;6.22;;;;;;;;;;5118385;28;20019;-76
2022/04/16 06:34:23;;;;;;;9.30;6.37;;;;;;;;;;5118673;28;20020;-75
2022/04/16 06:36:49;;;;;;;8.90;6.38;;;;;;;;;;5113812;27;20255;-75
2022/04/16 06:39:14;;;;;;;7.82;5.82;;;;;;;;;;5128088;28;20027;-76
2022/04/16 06:41:39;;;;;;;10.10;5.83;;;;;;;;;;5130645;28;20049;-74
2022/04/16 06:44:04;;;;;;;7.23;5.23;;;;;;;;;;5130215;28;20272;-75
2022/04/16 06:46:30;;;;;;;7.90;5.93;;;;;;;;;;5130705;27;20252;-77
2022/04/16 06:48:55;;;;;;;7.68;5.60;;;;;;;;;;5130669;28;20039;-75
2022/04/16 06:51:20;;;;;;;8.13;5.70;;;;;;;;;;5120227;28;20019;-75
2022/04/16 06:53:45;;;;;;;9.93;6.53;;;;;;;;;;5117901;28;20268;-76
2022/04/16 06:56:11;;;;;;;9.27;5.30;;;;;;;;;;5115820;27;20468;-76
2022/04/16 06:58:36;;;;;;;8.17;5.47;;;;;;;;;;5122738;27;20452;-76
2022/04/16 07:01:01;;;;;;;8.77;6.05;;;;;;;;;;5117719;27;20309;-77
2022/04/16 07:03:26;;;;;;;7.53;5.18;;;;;;;;;;5119118;27;20007;-76
2022/04/16 07:05:52;;;;;;;9.27;5.73;;;;;;;;;;5125898;27;20584;-76
2022/04/16 07:08:17;;;;;;;10.00;5.43;;;;;;;;;;5118843;27;20746;-75
2022/04/16 07:10:43;;;;;;;9.27;5.57;;;;;;;;;;5110057;28;20007;-77
2022/04/16 07:13:08;;;;;;;6.85;5.22;;;;;;;;;;5116883;27;20015;-76
2022/04/16 07:15:33;;;;;;;9.23;5.63;;;;;;;;;;5121411;27;20046;-77
2022/04/16 07:17:59;;;;;;;7.30;4.85;;;;;;;;;;5116597;27;20417;-76
2022/04/16 07:20:24;;;;;;;7.53;5.70;;;;;;;;;;5117850;27;20489;-76
2022/04/16 07:22:49;;;;;;;6.78;4.75;;;;;;;;;;5121491;27;20038;-78
2022/04/16 07:25:15;;;;;;;6.60;5.00;;;;;;;;;;5119193;27;20148;-76
2022/04/16 07:27:42;;;;;;;7.03;5.13;;;;;;;;;;5123902;27;20416;-79
2022/04/16 07:30:07;;;;;;;8.20;5.88;;;;;;;;;;5122064;27;20476;-80
2022/04/16 07:32:32;;;;;;;9.38;5.43;;;;;;;;;;5117682;27;20100;-79
2022/04/16 07:34:57;;;;;;;7.57;5.40;;;;;;;;;;5115405;27;20034;-78
2022/04/16 07:37:23;;;;;;;7.25;5.20;;;;;;;;;;5123725;27;20043;-83
2022/04/16 07:39:48;;;;;;;6.90;5.30;;;;;;;;;;5120512;27;20011;-82
2022/04/16 07:42:13;;;;;;;7.90;4.93;;;;;;;;;;5121604;27;20037;-80
2022/04/16 07:44:38;;;;;;;9.63;5.90;;;;;;;;;;5116737;27;20047;-78
2022/04/16 07:47:04;;;;;;;7.40;5.30;;;;;;;;;;5119781;27;20343;-79
2022/04/16 07:49:29;;;;;;;7.25;4.90;;;;;;;;;;5121186;27;20015;-80
2022/04/16 07:51:57;;;;;;;7.03;5.17;;;;;;;;;;5127877;27;20043;-80
2022/04/16 07:54:23;;;;;;;6.85;4.88;;;;;;;;;;5135697;27;20308;-83
2022/04/16 07:56:48;;;;;;;7.38;4.50;;;;;;;;;;5132945;27;20031;-77
2022/04/16 07:59:14;;;;;;;7.20;5.28;;;;;;;;;;5132322;27;20027;-76
2022/04/16 08:01:39;;;;;;;7.50;5.22;;;;;;;;;;5133022;27;20027;-75
2022/04/16 08:04:04;;;;;;;7.70;5.35;;;;;;;;;;5133164;27;20019;-77
2022/04/16 08:06:29;;;;;;;7.68;5.22;;;;;;;;;;5127130;27;20368;-75
2022/04/16 08:09:00;;;;;;;7.28;5.10;;;;;;;;;;5120581;27;20035;-76
2022/04/16 08:11:27;;;;;;;7.30;5.05;;;;;;;;;;5119608;27;20020;-76
2022/04/16 08:13:52;;;;;;;7.22;5.05;;;;;;;;;;5120115;27;20019;-77
2022/04/16 08:16:17;;;;;;;8.33;5.40;;;;;;;;;;5117635;27;20054;-79
2022/04/16 08:18:42;;;;;;;9.87;5.17;;;;;;;;;;5128449;27;20247;-77
2022/04/16 08:21:08;;;;;;;7.77;5.30;;;;;;;;;;5122396;27;20016;-75
2022/04/16 08:23:40;;;;;;;6.30;4.38;;;;;;;;;;5117915;27;20460;-76
2022/04/16 08:26:05;;;;;;;7.35;4.60;;;;;;;;;;5111615;28;20654;-77
2022/04/16 08:28:30;;;;;;;6.50;4.30;;;;;;;;;;5111324;28;20066;-76
2022/04/16 08:30:55;;;;;;;7.07;4.60;;;;;;;;;;5111635;28;20271;-75
2022/04/16 08:33:20;;;;;;;8.80;5.53;;;;;;;;;;5116740;28;20264;-83
2022/04/16 08:35:46;;;;;;;6.43;3.93;;;;;;;;;;5117933;28;20034;-90
2022/04/16 08:38:12;;;;;;;6.50;4.38;;;;;;;;;;5119634;28;20066;-84
2022/04/16 08:40:37;;;;;;;5.60;4.35;;;;;;;;;;5124706;27;20745;-77
2022/04/16 08:43:03;;;;;;;5.70;3.95;;;;;;;;;;5132222;27;20019;-76
2022/04/16 08:45:30;;;;;;;7.45;5.00;;;;;;;;;;5132179;27;20031;-74
2022/04/16 08:47:55;;;;;;;5.22;3.88;;;;;;;;;;5131743;27;20042;-78
2022/04/16 08:50:20;;;;;;;5.57;3.95;;;;;;;;;;5131392;27;20022;-73
2022/04/16 08:52:46;;;;;;;6.00;4.00;;;;;;;;;;5135154;27;20046;-79
2022/04/16 08:55:12;;;;;;;9.38;4.90;;;;;;;;;;5132671;27;20274;-76
2022/04/16 08:57:39;;;;;;;6.30;4.57;;;;;;;;;;5134859;27;20023;-73
2022/04/16 09:00:04;;;;;;;7.38;4.00;;;;;;;;;;5130360;27;20472;-75
2022/04/16 09:02:30;;;;;;;8.00;4.25;;;;;;;;;;5132907;27;20113;-75
2022/04/16 09:05:01;;;;;;;6.20;4.17;;;;;;;;;;5131680;27;20464;-75
2022/04/16 09:07:26;;;;;;;7.35;4.10;;;;;;;;;;5134870;27;20506;-77
2022/04/16 09:09:51;;;;;;;6.80;4.10;;;;;;;;;;5131758;27;20027;-78
2022/04/16 09:12:18;;;;;;;5.80;4.18;;;;;;;;;;5139154;27;20106;-77
2022/04/16 09:14:45;;;;;;;5.32;3.85;;;;;;;;;;5133495;27;20022;-74
2022/04/16 09:17:15;;;;;;;4.90;3.70;;;;;;;;;;5133257;27;20055;-72
2022/04/16 09:19:40;;;;;;;5.03;3.72;;;;;;;;;;5131189;27;20027;-74
2022/04/16 09:22:07;;;;;;;7.30;4.20;;;;;;;;;;5132245;27;20063;-74
2022/04/16 09:24:48;;;;;;;5.38;3.70;;;;;;;;;;5131697;27;20079;-74
2022/04/16 09:27:14;;;;;;;5.07;4.18;;;;;;;;;;5131286;27;20110;-74
2022/04/16 09:29:40;;;;;;;5.05;3.63;;;;;;;;;;5126797;27;20130;-74
2022/04/16 09:32:06;;;;;;;7.10;4.00;;;;;;;;;;5115227;27;20020;-74
2022/04/16 09:34:31;;;;;;;5.65;3.55;;;;;;;;;;5126633;27;20455;-73
2022/04/16 09:36:56;;;;;;;5.00;3.23;;;;;;;;;;5121727;27;20028;-73
2022/04/16 09:39:25;;;;;;;5.53;3.77;;;;;;;;;;5110505;28;20029;-73
2022/04/16 09:41:51;;;;;;;6.45;3.90;;;;;;;;;;5120281;28;20312;-73
2022/04/16 09:44:25;;;;;;;5.85;3.80;;;;;;;;;;5116979;27;20124;-74
2022/04/16 09:46:51;;;;;;;4.88;3.42;;;;;;;;;;5112421;28;20026;-73
2022/04/16 09:49:17;;;;;;;5.82;3.92;;;;;;;;;;5115110;28;20022;-73
2022/04/16 09:51:43;;;;;;;6.43;4.05;;;;;;;;;;5121515;27;20027;-76
2022/04/16 09:54:11;;;;;;;4.95;3.53;;;;;;;;;;5123321;28;20046;-74
2022/04/16 09:56:37;;;;;;;4.20;3.58;;;;;;;;;;5112643;28;20024;-74
2022/04/16 09:59:04;;;;;;;4.50;3.28;;;;;;;;;;5113589;28;20459;-74
2022/04/16 10:01:30;;;;;;;4.28;3.00;;;;;;;;;;5123537;27;20056;-76
2022/04/16 10:03:56;;;;;;;4.60;2.97;;;;;;;;;;5122071;28;20388;-75
2022/04/16 10:06:21;;;;;;;5.35;3.92;;;;;;;;;;5116216;27;20022;-81
2022/04/16 10:08:48;;;;;;;4.27;3.20;;;;;;;;;;5124851;28;20032;-75
2022/04/16 10:11:20;;;;;;;4.72;3.65;;;;;;;;;;5114334;28;20252;-74
2022/04/16 10:13:53;;;;;;;5.32;4.10;;;;;;;;;;5120055;28;20403;-74
2022/04/16 10:16:24;;;;;;;4.35;3.17;;;;;;;;;;5116234;27;20044;-74
2022/04/16 10:18:50;;;;;;;4.25;3.38;;;;;;;;;;5126989;28;20034;-75
2022/04/16 10:21:16;;;;;;;6.67;3.17;;;;;;;;;;5116120;28;20023;-77
2022/04/16 10:23:41;;;;;;;6.90;3.45;;;;;;;;;;5122609;27;20020;-75
2022/04/16 10:26:08;;;;;;;4.22;3.38;;;;;;;;;;5117922;28;20020;-76
2022/04/16 10:28:38;;;;;;;4.30;3.10;;;;;;;;;;5113649;28;20134;-74
2022/04/16 10:31:03;;;;;;;6.65;3.50;;;;;;;;;;5115884;27;20072;-74
2022/04/16 10:33:29;;;;;;;3.90;2.88;;;;;;;;;;5121675;27;20011;-76
2022/04/16 10:35:58;;;;;;;4.03;2.77;;;;;;;;;;5123656;27;20102;-75
2022/04/16 10:38:25;;;;;;;4.43;3.10;;;;;;;;;;5114867;27;20267;-74
2022/04/16 10:41:00;;;;;;;4.07;3.10;;;;;;;;;;5114856;27;20020;-74
2022/04/16 10:43:28;;;;;;;4.78;2.90;;;;;;;;;;5127765;27;20094;-75
2022/04/16 10:45:59;;;;;;;4.97;3.30;;;;;;;;;;5124778;27;20011;-74
2022/04/16 10:48:24;;;;;;;4.88;3.28;;;;;;;;;;5118614;27;20047;-73
2022/04/16 10:50:52;;;;;;;4.67;3.20;;;;;;;;;;5129799;27;20024;-74
2022/04/16 10:53:25;;;;;;;5.65;3.40;;;;;;;;;;5112214;28;20264;-74
2022/04/16 10:55:51;;;;;;;3.90;2.85;;;;;;;;;;5122507;27;20110;-77
2022/04/16 10:58:26;;;;;;;4.68;3.10;;;;;;;;;;5120244;27;20122;-75
2022/04/16 11:00:51;;;;;;;4.05;2.78;;;;;;;;;;5130476;27;20547;-75
2022/04/16 11:03:27;;;;;;;4.40;3.07;;;;;;;;;;5113522;28;20118;-74
2022/04/16 11:06:03;;;;;;;4.07;2.88;;;;;;;;;;5124065;27;20739;-74
2022/04/16 11:08:28;;;;;;;;;;;;;;;;;;5118899;27;20035;-75
2022/04/16 11:11:01;;;;;;;4.30;2.77;;;;;;;;;;5139168;27;19975;-81
2022/04/16 11:13:29;;;;;;;5.18;3.17;;;;;;;;;;5129993;28;20240;-80
2022/04/16 11:15:54;;;;;;;5.97;2.90;;;;;;;;;;5135417;28;20074;-75
2022/04/16 11:18:20;;;;;;;3.42;2.65;;;;;;;;;;5119185;28;20020;-81
2022/04/16 11:20:58;;;;;;;5.10;2.67;;;;;;;;;;5125604;27;20024;-81
2022/04/16 11:23:26;;;;;;;3.92;2.75;;;;;;;;;;5147955;27;20068;-82
2022/04/16 11:34:20;;;;;;;3.50;2.40;;;;;;;;;;5128192;28;20022;-83
2022/04/16 11:36:49;;;;;;;3.65;2.58;;;;;;;;;;5144554;27;20503;-83
2022/04/16 11:39:18;;;;;;;4.30;2.90;;;;;;;;;;5129212;28;20027;-83
2022/04/16 11:41:53;;;;;;;4.75;2.70;;;;;;;;;;5136790;27;20098;-79
2022/04/16 11:44:29;;;;;;;3.15;2.35;;;;;;;;;;5133332;27;20012;-83
2022/04/16 11:46:54;;;;;;;4.43;2.63;;;;;;;;;;5132855;28;20026;-81
2022/04/16 11:49:19;;;;;;;4.85;2.90;;;;;;;;;;5131648;28;20559;-82
2022/04/16 11:51:45;;;;;;;3.28;2.22;;;;;;;;;;5143963;27;20020;-83
2022/04/16 11:54:10;;;;;;;4.22;2.67;;;;;;;;;;5154551;27;20030;-83
2022/04/16 11:56:35;;;;;;;4.20;2.28;;;;;;;;;;5155879;27;20015;-83
2022/04/16 11:59:00;;;;;;;3.78;2.40;;;;;;;;;;5145187;27;20078;-83
2022/04/16 12:01:26;;;;;;;3.10;2.20;;;;;;;;;;5156979;27;20015;-83
2022/04/16 12:03:52;;;;;;;4.97;2.50;;;;;;;;;;5157594;27;20246;-86
2022/04/16 12:06:17;;;;;;;3.35;2.35;;;;;;;;;;5140090;27;20049;-83
2022/04/16 12:08:43;;;;;;;3.38;2.08;;;;;;;;;;5130611;28;20027;-84
2022/04/16 12:11:11;;;;;;;3.10;1.90;;;;;;;;;;5134096;28;20097;-87
2022/04/16 12:13:37;;;;;;;3.10;2.15;;;;;;;;;;5142155;27;20023;-87
2022/04/16 12:16:03;;;;;;;3.17;2.35;;;;;;;;;;5156698;27;20050;-86
2022/04/16 12:18:34;;;;;;;2.72;1.92;;;;;;;;;;5156944;27;20023;-84
2022/04/16 12:21:04;;;;;;;3.40;2.08;;;;;;;;;;5155989;27;20076;-85
2022/04/16 12:23:30;;;;;;;2.50;1.90;;;;;;;;;;5147082;27;20082;-79
2022/04/16 12:26:05;;;;;;;4.75;2.00;;;;;;;;;;5137650;27;20061;-87
2022/04/16 12:28:31;;;;;;;4.20;1.90;;;;;;;;;;5136933;27;20372;-86
2022/04/16 12:30:57;;;;;;;3.42;1.83;;;;;;;;;;5126708;27;20026;-85
2022/04/16 12:33:25;;;;;;;2.47;1.77;;;;;;;;;;5140388;27;20459;-83
2022/04/16 12:35:55;;;;;;;3.88;1.80;;;;;;;;;;5128808;27;20676;-77
2022/04/16 12:38:21;;;;;;;2.33;1.60;;;;;;;;;;5118592;27;20054;-74
2022/04/16 12:40:46;;;;;;;2.17;1.55;;;;;;;;;;5114143;27;20514;-75
2022/04/16 12:43:11;;;;;;;6.88;2.78;;;;;;;;;;5114123;27;20051;-74
2022/04/16 12:45:37;;;;;;;3.03;1.73;;;;;;;;;;5119602;27;20019;-75
2022/04/16 12:48:02;;;;;;;1.90;1.50;;;;;;;;;;5120992;27;20495;-75
2022/04/16 12:50:29;;;;;;;1.92;1.42;;;;;;;;;;5119261;27;20422;-75
2022/04/16 12:52:55;;;;;;;2.05;1.58;;;;;;;;;;5119113;27;20016;-75
2022/04/16 12:55:20;;;;;;;2.63;1.40;;;;;;;;;;5119717;27;20023;-75
2022/04/16 12:57:46;;;;;;;2.03;1.50;;;;;;;;;;5119397;27;20498;-76
2022/04/16 13:00:12;;;;;;;1.77;1.40;;;;;;;;;;5119097;27;20718;-74
2022/04/16 13:02:42;;;;;;;2.13;1.55;;;;;;;;;;5121703;27;20045;-76
2022/04/16 13:05:08;;;;;;;2.25;1.50;;;;;;;;;;5120533;27;20018;-73
2022/04/16 13:07:34;;;;;;;2.60;1.40;;;;;;;;;;5116893;27;20043;-73
2022/04/16 13:10:00;;;;;;;1.92;1.50;;;;;;;;;;5120149;27;20016;-77
2022/04/16 13:12:25;;;;;;;1.73;1.40;;;;;;;;;;5121821;27;20494;-80
2022/04/16 13:14:51;;;;;;;2.65;1.40;;;;;;;;;;5120013;27;20079;-79
2022/04/16 13:17:16;;;;;;;2.10;1.50;;;;;;;;;;5119005;27;20030;-83
2022/04/16 13:19:41;;;;;;;2.15;1.50;;;;;;;;;;5121178;27;20111;-81
2022/04/16 13:22:07;;;;;;;1.43;1.27;;;;;;;;;;5112863;27;20033;-81
2022/04/16 13:24:32;;;;;;;3.88;1.50;;;;;;;;;;5116176;27;20270;-77
2022/04/16 13:26:58;;;;;;;1.95;1.27;;;;;;;;;;5112658;27;20073;-84
2022/04/16 13:29:23;;;;;;;1.42;1.23;;;;;;;;;;5121514;27;20036;-77
2022/04/16 13:31:49;;;;;;;1.63;1.33;;;;;;;;;;5117455;27;20038;-76
2022/04/16 13:34:14;;;;;;;2.40;1.40;;;;;;;;;;5119732;27;20055;-80
2022/04/16 13:36:39;;;;;;;1.40;1.30;;;;;;;;;;5121768;27;20266;-82
2022/04/16 13:39:05;;;;;;;15.23;7.57;;;;;;;;;;5113545;27;20574;-80
2022/04/16 13:41:39;;;;;;;2.65;2.00;;;;;;;;;;5127739;27;20244;-83
2022/04/16 13:44:10;;;;;;;1.63;1.50;;;;;;;;;;5137934;28;20027;-86
2022/04/16 13:46:36;;;;;;;2.70;1.70;;;;;;;;;;5127119;27;20083;-82
2022/04/16 13:49:03;;;;;;;2.20;1.40;;;;;;;;;;5121027;28;20020;-85
2022/04/16 13:51:28;;;;;;;1.60;1.38;;;;;;;;;;5130973;28;20004;-84
2022/04/16 13:53:53;;;;;;;1.60;1.30;;;;;;;;;;5141971;27;20023;-88
2022/04/16 13:56:19;;;;;;;1.40;1.17;;;;;;;;;;5126629;27;20018;-87
2022/04/16 13:58:45;;;;;;;2.00;1.50;;;;;;;;;;5137637;28;20479;-87
2022/04/16 14:01:13;;;;;;;2.30;1.38;;;;;;;;;;5143776;27;20235;-87
2022/04/16 14:03:38;;;;;;;2.00;1.50;;;;;;;;;;5135940;27;20022;-87
2022/04/16 14:06:03;;;;;;;2.53;1.60;;;;;;;;;;5139619;27;20063;-85
2022/04/16 14:08:29;;;;;;;1.80;1.40;;;;;;;;;;5139317;27;20287;-80
2022/04/16 14:10:57;;;;;;;1.90;1.50;;;;;;;;;;5133676;27;20264;-83
2022/04/16 14:13:23;;;;;;;1.92;1.70;;;;;;;;;;5125930;28;20014;-80
2022/04/16 14:15:50;;;;;;;2.20;1.55;;;;;;;;;;5126424;28;20063;-83
2022/04/16 14:18:15;;;;;;;2.38;1.70;;;;;;;;;;5132695;28;20016;-86
2022/04/16 14:20:42;;;;;;;1.92;1.52;;;;;;;;;;5127675;27;20016;-84
2022/04/16 14:23:07;;;;;;;2.08;1.60;;;;;;;;;;5139154;27;20028;-84
2022/04/16 14:25:33;;;;;;;2.72;1.40;;;;;;;;;;5137274;28;20021;-86
2022/04/16 14:27:59;;;;;;;2.17;1.65;;;;;;;;;;5136768;27;20099;-84
2022/04/16 14:30:25;;;;;;;2.35;1.60;;;;;;;;;;5143667;27;20026;-82
2022/04/16 14:32:50;;;;;;;3.03;1.92;;;;;;;;;;5151219;27;20134;-85
2022/04/16 14:35:16;;;;;;;2.53;1.60;;;;;;;;;;5144240;27;20023;-83
2022/04/16 14:37:44;;;;;;;2.50;1.60;;;;;;;;;;5128298;27;20113;-84
2022/04/16 14:40:09;;;;;;;2.67;1.63;;;;;;;;;;5127343;28;20030;-88
2022/04/16 14:42:34;;;;;;;1.65;1.33;;;;;;;;;;5140402;27;20023;-81
2022/04/16 14:45:00;;;;;;;3.03;1.38;;;;;;;;;;5148596;27;20015;-83
2022/04/16 14:47:25;;;;;;;1.63;1.40;;;;;;;;;;5134526;28;20020;-82
2022/04/16 14:49:50;;;;;;;1.95;1.50;;;;;;;;;;5144755;27;21050;-85